createdAt,value
2023-01-20T00:01:04.207Z,58.00
2023-01-20T00:04:09.527Z,58.00
2023-01-20T00:07:12.269Z,58.20
2023-01-20T00:13:05.531Z,57.80
2023-01-20T00:19:08.920Z,58.20
2023-01-20T00:25:03.645Z,58.40
2023-01-20T00:27:51.017Z,58.30
2023-01-20T00:30:51.612Z,58.40
2023-01-20T00:33:52.424Z,58.30
2023-01-20T00:36:46.173Z,58.60
2023-01-20T00:44:47.343Z,58.80
2023-01-20T00:51:13.432Z,59.00
2023-01-20T00:54:12.512Z,59.00
2023-01-20T01:00:06.737Z,59.70
2023-01-20T01:02:55.092Z,59.00
2023-01-20T01:05:24.172Z,59.20
2023-01-20T01:08:11.047Z,59.30
2023-01-20T01:11:05.073Z,59.10
2023-01-20T01:13:53.161Z,59.40
2023-01-20T01:17:00.358Z,59.40
2023-01-20T01:19:42.812Z,59.30
2023-01-20T01:22:20.328Z,59.70
2023-01-20T01:31:19.096Z,59.40
2023-01-20T01:34:15.136Z,59.70
2023-01-20T01:37:26.709Z,59.70
2023-01-20T01:46:44.759Z,59.70
2023-01-20T01:49:52.211Z,59.80
2023-01-20T01:52:49.850Z,59.90
2023-01-20T01:55:41.734Z,60.00
2023-01-20T01:58:33.894Z,59.90
2023-01-20T02:01:28.083Z,60.10
2023-01-20T02:04:10.358Z,60.20
2023-01-20T02:07:07.960Z,60.20
2023-01-20T02:09:46.509Z,60.20
2023-01-20T02:12:35.422Z,60.30
2023-01-20T02:15:33.159Z,60.30
2023-01-20T02:18:37.145Z,60.20
2023-01-20T02:22:10.295Z,60.20
2023-01-20T02:25:40.952Z,60.10
2023-01-20T02:28:56.475Z,60.30
2023-01-20T02:32:34.480Z,60.30
2023-01-20T02:38:34.955Z,60.60
2023-01-20T02:41:31.948Z,60.60
2023-01-20T02:44:35.101Z,60.60
2023-01-20T02:47:33.551Z,60.70
2023-01-20T02:50:51.625Z,60.90
2023-01-20T02:54:03.887Z,60.80
2023-01-20T02:56:51.641Z,61.00
2023-01-20T02:59:37.916Z,61.10
2023-01-20T03:02:44.267Z,60.90
2023-01-20T03:05:57.713Z,61.20
2023-01-20T03:11:55.490Z,61.40
2023-01-20T03:14:38.870Z,61.20
2023-01-20T03:17:34.928Z,61.10
2023-01-20T03:20:28.741Z,61.30
2023-01-20T03:26:27.736Z,61.90
2023-01-20T03:29:44.553Z,61.80
2023-01-20T03:32:36.761Z,61.70
2023-01-20T03:35:30.615Z,61.70
2023-01-20T03:38:33.108Z,61.70
2023-01-20T03:45:06.174Z,62.00
2023-01-20T03:48:30.874Z,61.90
2023-01-20T03:55:22.983Z,62.10
2023-01-20T03:58:42.976Z,62.10
2023-01-20T04:01:40.090Z,62.20
2023-01-20T04:04:22.125Z,62.30
2023-01-20T04:07:09.136Z,62.20
2023-01-20T04:10:22.572Z,62.00
2023-01-20T04:16:46.917Z,62.30
2023-01-20T04:19:48.982Z,62.50
2023-01-20T04:25:46.123Z,62.50
2023-01-20T04:28:46.628Z,62.30
2023-01-20T04:31:44.847Z,62.60
2023-01-20T04:37:45.501Z,62.60
2023-01-20T04:40:48.688Z,62.60
2023-01-20T04:43:47.247Z,62.60
2023-01-20T04:46:24.088Z,63.00
2023-01-20T04:49:11.006Z,63.00
2023-01-20T04:52:08.072Z,62.90
2023-01-20T04:55:11.702Z,62.70
2023-01-20T04:58:13.109Z,62.90
2023-01-20T05:01:05.973Z,62.70
2023-01-20T05:04:08.684Z,63.10
2023-01-20T05:10:02.807Z,63.30
2023-01-20T05:12:40.631Z,63.00
2023-01-20T05:15:18.383Z,62.90
2023-01-20T05:17:49.342Z,63.30
2023-01-20T05:20:19.033Z,63.10
2023-01-20T05:22:52.740Z,63.30
2023-01-20T05:25:22.765Z,63.20
2023-01-20T05:27:51.556Z,63.40
2023-01-20T05:30:28.144Z,63.50
2023-01-20T06:42:38.638Z,63.70
2023-01-20T06:45:26.310Z,64.20
2023-01-20T06:48:06.993Z,63.80
2023-01-20T06:50:49.707Z,64.20
2023-01-20T06:53:46.587Z,64.30
2023-01-20T06:57:18.027Z,64.30
2023-01-20T06:59:54.777Z,64.50
2023-01-20T07:02:45.792Z,64.60
2023-01-20T07:05:38.512Z,64.70
2023-01-20T07:08:27.947Z,64.70
2023-01-20T07:11:09.732Z,64.70
2023-01-20T07:14:07.804Z,64.80
2023-01-20T09:59:39.225Z,65.70
2023-01-20T10:02:26.579Z,65.90
2023-01-20T10:05:09.718Z,65.90
2023-01-20T10:07:51.553Z,66.30
2023-01-20T10:13:26.748Z,66.40
2023-01-20T10:16:09.351Z,66.10
2023-01-20T10:19:10.092Z,66.50
2023-01-20T10:22:12.547Z,66.10
2023-01-20T10:25:06.569Z,66.30
2023-01-20T10:27:47.731Z,66.10
2023-01-20T10:30:47.164Z,65.90
2023-01-20T10:33:45.172Z,65.90
2023-01-20T10:36:29.087Z,66.00
2023-01-20T10:39:05.841Z,65.90
2023-01-20T10:41:46.091Z,66.20
2023-01-20T10:44:28.462Z,66.30
2023-01-20T10:47:31.162Z,66.10
2023-01-20T10:53:46.671Z,66.30
2023-01-20T10:56:36.801Z,66.30
2023-01-20T10:59:19.372Z,66.30
2023-01-20T11:02:12.007Z,66.20
2023-01-20T11:04:49.870Z,66.20
2023-01-20T11:07:47.513Z,66.40
2023-01-20T11:10:33.391Z,66.50
2023-01-20T11:13:07.475Z,66.20
2023-01-20T11:16:11.463Z,66.20
2023-01-20T11:19:17.411Z,66.10
2023-01-20T11:22:03.537Z,66.00
2023-01-20T11:24:52.867Z,66.40
2023-01-20T11:27:28.490Z,66.30
2023-01-20T11:30:35.011Z,66.30
2023-01-20T11:33:17.929Z,66.20
2023-01-20T11:36:15.109Z,66.30
2023-01-20T11:39:00.116Z,67.10
2023-01-20T11:41:48.910Z,66.40
2023-01-20T11:47:33.407Z,66.20
2023-01-20T11:50:49.072Z,66.40
2023-01-20T11:53:54.684Z,66.00
2023-01-20T11:56:45.004Z,66.10
2023-01-20T12:02:37.330Z,66.10
2023-01-20T12:05:35.278Z,65.70
2023-01-20T12:08:53.141Z,66.00
2023-01-20T12:11:53.438Z,65.70
2023-01-20T12:14:37.422Z,65.70
2023-01-20T12:20:54.553Z,65.70
2023-01-20T12:23:50.035Z,65.70
2023-01-20T12:26:29.716Z,65.90
2023-01-20T12:29:13.735Z,66.10
2023-01-20T12:31:54.566Z,66.00
2023-01-20T12:34:33.532Z,65.70
2023-01-20T12:37:22.553Z,65.90
2023-01-20T12:40:56.374Z,65.80
2023-01-20T12:44:15.229Z,65.60
2023-01-20T12:47:20.638Z,65.50
2023-01-20T12:50:29.101Z,65.40
2023-01-20T12:53:48.684Z,65.60
2023-01-20T12:56:40.294Z,65.70
2023-01-20T12:59:29.339Z,65.70
2023-01-20T13:02:39.732Z,65.70
2023-01-20T13:05:47.196Z,65.50
2023-01-20T13:08:41.347Z,65.40
2023-01-20T13:11:35.892Z,65.60
2023-01-20T13:14:34.595Z,65.50
2023-01-20T13:17:29.105Z,65.80
2023-01-20T13:20:27.466Z,65.80
2023-01-20T13:23:08.950Z,65.90
2023-01-20T13:25:47.941Z,65.70
2023-01-20T13:28:47.550Z,66.10
2023-01-20T13:32:01.164Z,65.90
2023-01-20T13:35:11.231Z,65.60
2023-01-20T13:38:13.273Z,65.70
2023-01-20T13:41:13.649Z,65.90
2023-01-20T13:58:02.168Z,66.10
2023-01-20T14:00:53.620Z,65.90
2023-01-20T14:03:57.618Z,66.10
2023-01-20T14:07:00.143Z,65.80
2023-01-20T14:09:42.265Z,66.00
2023-01-20T14:13:02.905Z,66.10
2023-01-20T14:16:09.420Z,66.20
2023-01-20T14:19:20.720Z,66.10
2023-01-20T14:22:03.387Z,66.30
2023-01-20T14:25:11.691Z,66.30
2023-01-20T14:28:14.160Z,66.20
2023-01-20T14:34:31.481Z,66.00
2023-01-20T14:37:24.576Z,65.80
2023-01-20T14:40:42.589Z,66.10
2023-01-20T14:43:58.966Z,65.90
2023-01-20T14:46:59.851Z,66.30
2023-01-20T14:50:07.293Z,66.30
2023-01-20T14:53:00.897Z,66.30
2023-01-20T14:56:21.575Z,66.30
2023-01-20T14:59:01.055Z,65.90
2023-01-20T15:01:50.229Z,66.20
2023-01-20T15:05:14.526Z,66.20
2023-01-20T15:08:35.235Z,66.30
2023-01-20T15:11:33.700Z,66.10
2023-01-20T15:14:21.926Z,66.10
2023-01-20T15:19:54.663Z,66.00
2023-01-20T15:22:29.074Z,66.00
2023-01-20T15:25:22.502Z,66.00
2023-01-20T15:28:30.179Z,65.90
2023-01-20T15:31:06.296Z,65.90
2023-01-20T15:33:47.057Z,66.20
2023-01-20T15:36:39.287Z,66.00
2023-01-20T15:40:11.301Z,65.60
2023-01-20T15:43:27.550Z,65.70
2023-01-20T15:46:03.229Z,65.60
2023-01-20T15:48:42.135Z,66.10
2023-01-20T15:51:45.776Z,65.90
2023-01-20T15:54:14.944Z,65.80
2023-01-20T15:56:47.502Z,66.10
2023-01-20T15:59:24.506Z,66.00
2023-01-20T16:01:54.403Z,66.10
2023-01-20T16:04:23.582Z,65.90
2023-01-20T16:06:52.446Z,65.90
2023-01-20T16:09:32.813Z,65.90
2023-01-20T16:12:13.127Z,66.00
2023-01-20T16:15:08.486Z,66.00
2023-01-20T16:17:55.164Z,66.10
2023-01-20T16:21:03.142Z,66.00
2023-01-20T16:23:33.833Z,66.20
2023-01-20T16:26:31.798Z,65.90
2023-01-20T16:29:06.495Z,65.80
2023-01-20T16:31:40.519Z,65.90
2023-01-20T16:38:20.722Z,65.90
2023-01-20T16:40:58.183Z,66.00
2023-01-20T16:43:36.940Z,66.00
2023-01-20T16:46:05.934Z,66.10
2023-01-20T16:48:53.473Z,65.90
2023-01-20T16:51:41.889Z,66.00
2023-01-20T16:54:33.971Z,66.10
2023-01-20T16:57:03.160Z,65.90
2023-01-20T16:59:33.247Z,66.50
2023-01-20T17:02:01.956Z,65.90
2023-01-20T17:05:04.123Z,66.20
2023-01-20T17:07:33.333Z,65.80
2023-01-20T17:10:04.137Z,65.80
2023-01-20T17:13:02.324Z,65.90
2023-01-20T17:15:35.210Z,65.50
2023-01-20T17:18:13.737Z,65.50
2023-01-20T17:21:04.065Z,66.00
2023-01-20T17:26:49.349Z,65.70
2023-01-20T17:29:28.660Z,65.70
2023-01-20T17:32:02.837Z,65.60
2023-01-20T17:34:32.068Z,65.90
2023-01-20T17:37:02.765Z,65.80
2023-01-20T17:39:37.382Z,65.80
2023-01-20T17:42:06.152Z,66.10
2023-01-20T17:44:37.753Z,65.60
2023-01-20T17:47:22.096Z,66.50
2023-01-20T17:50:07.386Z,65.70
2023-01-20T17:52:43.021Z,65.90
2023-01-20T17:55:12.072Z,65.90
2023-01-20T17:57:49.092Z,65.60
2023-01-20T18:00:27.661Z,65.90
2023-01-20T18:03:28.191Z,65.90
2023-01-20T18:06:01.890Z,66.30
2023-01-20T18:08:37.641Z,66.00
2023-01-20T18:31:11.965Z,65.80
2023-01-20T18:33:50.806Z,65.90
2023-01-20T18:36:30.103Z,66.00
2023-01-20T18:39:21.010Z,66.10
2023-01-20T18:42:02.550Z,66.20
2023-01-20T18:44:40.281Z,66.00
2023-01-20T18:47:26.787Z,66.10
2023-01-20T18:50:08.324Z,66.10
2023-01-20T19:14:49.868Z,66.40
2023-01-20T19:36:51.717Z,66.80
2023-01-20T19:53:33.772Z,66.80
2023-01-20T19:56:15.073Z,66.80
2023-01-20T19:58:48.162Z,66.90
2023-01-20T20:01:30.537Z,67.20
2023-01-20T20:04:28.708Z,66.90
2023-01-20T20:07:10.844Z,67.20
2023-01-20T20:09:46.333Z,67.50
2023-01-20T20:12:37.828Z,67.00
2023-01-20T20:15:16.397Z,66.90
2023-01-20T20:18:10.823Z,66.90
2023-01-20T20:20:51.059Z,67.00
2023-01-20T20:23:51.010Z,67.30
2023-01-20T20:26:43.800Z,66.80
2023-01-20T20:29:13.076Z,66.90
2023-01-20T20:31:53.984Z,66.90
2023-01-20T20:34:36.087Z,66.70
2023-01-20T20:37:16.835Z,66.90
2023-01-20T20:39:54.502Z,66.70
2023-01-20T20:42:58.675Z,66.90
2023-01-20T20:45:41.983Z,66.90
2023-01-20T20:48:12.607Z,66.70
2023-01-20T20:51:04.621Z,66.80
2023-01-20T20:54:19.054Z,66.80
2023-01-20T20:57:02.595Z,66.80
2023-01-20T20:59:58.814Z,66.90
2023-01-20T21:02:57.562Z,67.20
2023-01-20T21:05:41.461Z,66.80
2023-01-20T21:08:39.826Z,67.70
2023-01-20T21:11:24.347Z,66.60
2023-01-20T21:14:12.804Z,66.70
2023-01-20T21:16:49.447Z,67.50
2023-01-20T21:19:18.540Z,67.20
2023-01-20T21:21:56.877Z,67.30
2023-01-20T21:24:29.553Z,67.10
2023-01-20T21:27:00.871Z,66.90
2023-01-20T21:29:32.763Z,67.10
2023-01-20T21:32:15.691Z,66.70
2023-01-20T21:34:59.054Z,66.50
2023-01-20T21:37:32.848Z,66.70
2023-01-20T21:40:23.746Z,66.90
2023-01-20T21:43:16.569Z,66.90
2023-01-20T21:46:00.272Z,66.90
2023-01-20T21:48:59.729Z,66.90
2023-01-20T21:52:11.559Z,66.90
2023-01-20T21:54:56.338Z,66.60
2023-01-20T21:57:25.468Z,66.20
2023-01-20T22:00:18.994Z,66.40
2023-01-20T22:02:54.372Z,66.60
2023-01-20T22:05:25.392Z,66.50
2023-01-20T22:07:54.944Z,66.40
2023-01-20T22:10:23.577Z,66.40
2023-01-20T22:12:54.030Z,66.30
2023-01-20T22:15:26.449Z,66.30
2023-01-20T22:17:59.353Z,66.40
2023-01-20T22:20:30.299Z,66.60
2023-01-20T22:22:58.913Z,66.80
2023-01-20T22:25:27.478Z,66.70
2023-01-20T22:27:55.828Z,66.90
2023-01-20T22:30:24.298Z,66.80
2023-01-20T22:32:52.737Z,66.80
2023-01-20T22:35:23.055Z,66.80
2023-01-20T22:37:53.117Z,66.60
2023-01-20T22:43:17.310Z,66.70
2023-01-20T22:45:47.286Z,66.70
2023-01-20T22:48:16.680Z,66.50
2023-01-20T22:50:47.549Z,66.50
2023-01-20T22:53:18.100Z,66.60
2023-01-20T22:56:00.292Z,66.50
2023-01-20T22:58:30.004Z,66.50
2023-01-20T23:00:58.404Z,66.70
2023-01-20T23:03:27.624Z,66.60
2023-01-20T23:05:57.887Z,66.60
2023-01-20T23:08:32.037Z,66.20
2023-01-20T23:11:03.539Z,65.90
2023-01-20T23:13:32.034Z,67.30
2023-01-20T23:16:04.761Z,66.40
2023-01-20T23:18:33.538Z,66.80
2023-01-20T23:21:02.253Z,66.50
2023-01-20T23:23:34.435Z,66.40
2023-01-20T23:26:04.396Z,66.50
2023-01-20T23:28:37.130Z,66.50
2023-01-20T23:31:08.437Z,66.40
2023-01-20T23:33:40.833Z,66.50
2023-01-20T23:36:13.591Z,66.90
2023-01-20T23:38:46.499Z,66.60
2023-01-20T23:41:15.675Z,66.70
2023-01-20T23:43:46.060Z,66.60
2023-01-20T23:46:14.465Z,66.90
2023-01-20T23:48:43.078Z,66.50
2023-01-20T23:51:11.637Z,66.50
2023-01-20T23:53:41.510Z,66.50
2023-01-20T23:56:16.425Z,66.50
2023-01-20T23:58:45.613Z,66.40
